createdAt,value
2019-03-22T00:00:04.180Z,21.37
2019-03-22T00:04:14.196Z,23.10
2019-03-22T00:08:22.998Z,23.90
2019-03-22T00:12:31.606Z,12.53
2019-03-22T00:16:39.849Z,10.87
2019-03-22T00:20:49.487Z,11.60
2019-03-22T00:24:58.339Z,15.30
2019-03-22T00:29:06.560Z,13.87
2019-03-22T00:33:15.749Z,13.37
2019-03-22T00:37:23.916Z,12.70
2019-03-22T00:41:32.339Z,13.27
2019-03-22T00:45:40.754Z,12.40
2019-03-22T00:49:48.986Z,11.13
2019-03-22T00:53:57.703Z,9.80
2019-03-22T00:58:06.259Z,10.90
2019-03-22T01:02:14.759Z,9.50
2019-03-22T01:06:23.688Z,13.83
2019-03-22T01:10:32.941Z,14.63
2019-03-22T01:14:41.775Z,16.13
2019-03-22T01:18:50.938Z,14.33
2019-03-22T01:22:59.662Z,16.33
2019-03-22T01:27:07.968Z,14.33
2019-03-22T01:31:16.924Z,13.83
2019-03-22T01:35:25.340Z,11.57
2019-03-22T01:39:33.648Z,17.03
2019-03-22T01:43:42.813Z,16.70
2019-03-22T01:47:51.024Z,19.40
2019-03-22T01:51:59.838Z,16.03
2019-03-22T01:56:08.594Z,16.53
2019-03-22T02:00:17.773Z,15.07
2019-03-22T02:04:26.555Z,17.77
2019-03-22T02:08:35.079Z,16.30
2019-03-22T02:12:43.400Z,19.17
2019-03-22T02:16:51.841Z,18.83
2019-03-22T02:21:00.781Z,18.40
2019-03-22T02:25:09.610Z,18.87
2019-03-22T02:29:18.330Z,24.97
2019-03-22T02:33:27.529Z,18.93
2019-03-22T02:37:35.892Z,20.00
2019-03-22T02:41:45.157Z,16.67
2019-03-22T02:45:53.272Z,22.17
2019-03-22T02:50:11.691Z,20.77
2019-03-22T02:54:12.069Z,19.30
2019-03-22T02:58:21.443Z,18.60
2019-03-22T03:02:30.850Z,20.50
2019-03-22T03:06:39.722Z,24.97
2019-03-22T03:10:47.998Z,26.40
2019-03-22T03:14:56.642Z,22.77
2019-03-22T03:19:05.263Z,23.90
2019-03-22T03:23:13.592Z,20.93
2019-03-22T03:27:22.465Z,24.27
2019-03-22T03:31:31.172Z,23.43
2019-03-22T03:35:39.594Z,20.43
2019-03-22T03:39:48.366Z,23.37
2019-03-22T03:43:57.341Z,25.37
2019-03-22T03:48:07.597Z,27.30
2019-03-22T03:52:16.140Z,25.17
2019-03-22T03:56:24.383Z,25.00
2019-03-22T04:00:33.407Z,21.70
2019-03-22T04:04:41.542Z,23.77
2019-03-22T04:08:49.764Z,24.87
2019-03-22T04:12:58.870Z,25.43
2019-03-22T04:17:07.414Z,23.93
2019-03-22T04:21:15.733Z,26.67
2019-03-22T04:25:24.510Z,23.40
2019-03-22T04:29:32.680Z,24.40
2019-03-22T04:33:41.108Z,24.13
2019-03-22T04:37:49.942Z,28.73
2019-03-22T04:41:58.167Z,24.43
2019-03-22T04:46:07.993Z,24.70
2019-03-22T04:50:17.348Z,23.90
2019-03-22T04:54:27.980Z,23.00
2019-03-22T04:58:38.324Z,24.63
2019-03-22T05:02:48.564Z,24.93
2019-03-22T05:06:58.521Z,22.93
2019-03-22T05:11:09.639Z,26.93
2019-03-22T05:15:20.198Z,25.13
2019-03-22T05:19:31.497Z,26.97
2019-03-22T05:23:41.041Z,27.63
2019-03-22T05:27:51.377Z,33.73
2019-03-22T05:32:06.112Z,24.27
2019-03-22T05:36:14.310Z,23.67
2019-03-22T05:40:22.635Z,23.20
2019-03-22T05:44:31.360Z,25.67
2019-03-22T05:48:39.781Z,26.47
2019-03-22T05:52:48.626Z,21.83
2019-03-22T05:56:56.942Z,20.77
2019-03-22T06:01:06.087Z,25.37
2019-03-22T06:05:14.900Z,24.77
2019-03-22T06:09:23.147Z,20.10
2019-03-22T06:13:32.072Z,26.43
2019-03-22T06:17:51.150Z,27.43
2019-03-22T06:21:51.275Z,25.83
2019-03-22T06:26:00.111Z,30.60
2019-03-22T06:30:10.899Z,25.37
2019-03-22T06:34:19.306Z,22.73
2019-03-22T06:38:28.166Z,26.63
2019-03-22T06:42:36.766Z,25.90
2019-03-22T06:46:45.203Z,25.50
2019-03-22T06:50:53.526Z,24.80
2019-03-22T06:55:03.073Z,24.20
2019-03-22T06:59:11.809Z,28.50
2019-03-22T07:03:20.618Z,26.83
2019-03-22T07:07:28.934Z,25.50
2019-03-22T07:11:37.479Z,25.80
2019-03-22T07:15:47.054Z,19.20
2019-03-22T07:19:55.361Z,20.20
2019-03-22T07:24:04.408Z,25.27
2019-03-22T07:28:13.237Z,22.93
2019-03-22T07:32:21.562Z,20.57
2019-03-22T07:36:30.510Z,17.07
2019-03-22T07:40:38.718Z,19.20
2019-03-22T07:44:47.032Z,18.43
2019-03-22T07:48:56.184Z,17.33
2019-03-22T07:53:04.491Z,14.30
2019-03-22T07:57:13.528Z,22.37
2019-03-22T08:01:22.374Z,17.70
2019-03-22T08:05:31.107Z,17.93
2019-03-22T08:09:39.814Z,15.90
2019-03-22T08:13:48.458Z,14.10
2019-03-22T08:17:57.244Z,16.73
2019-03-22T08:22:06.123Z,23.07
2019-03-22T08:26:14.894Z,14.63
2019-03-22T08:30:23.192Z,13.07
2019-03-22T08:34:31.758Z,13.70
2019-03-22T08:38:40.154Z,16.33
2019-03-22T08:42:48.673Z,17.00
2019-03-22T08:46:57.539Z,18.40
2019-03-22T08:51:05.923Z,15.43
2019-03-22T08:55:14.535Z,12.17
2019-03-22T08:59:22.772Z,15.97
2019-03-22T09:03:31.112Z,12.03
2019-03-22T09:07:39.998Z,14.97
2019-03-22T09:11:48.752Z,14.80
2019-03-22T09:15:56.983Z,14.17
2019-03-22T09:20:06.317Z,16.17
2019-03-22T09:24:15.046Z,11.47
2019-03-22T09:28:23.298Z,8.47
2019-03-22T09:32:31.708Z,11.33
2019-03-22T09:36:40.167Z,9.87
2019-03-22T09:40:48.395Z,9.60
2019-03-22T09:44:56.972Z,13.67
2019-03-22T09:49:05.204Z,8.03
2019-03-22T09:53:13.714Z,8.70
2019-03-22T09:57:22.489Z,10.73
2019-03-22T10:01:30.682Z,10.80
2019-03-22T10:05:39.413Z,7.37
2019-03-22T10:09:47.650Z,15.80
2019-03-22T10:13:56.561Z,8.83
2019-03-22T10:18:05.828Z,8.07
2019-03-22T10:22:13.942Z,9.90
2019-03-22T10:26:22.697Z,10.67
2019-03-22T10:30:31.518Z,8.97
2019-03-22T10:34:39.984Z,8.97
2019-03-22T10:38:50.411Z,8.03
2019-03-22T10:42:58.624Z,6.70
2019-03-22T10:47:06.831Z,11.27
2019-03-22T10:51:15.655Z,13.23
2019-03-22T10:55:30.348Z,9.33
2019-03-22T10:59:34.140Z,7.47
2019-03-22T11:03:42.931Z,10.43
2019-03-22T11:07:51.299Z,9.23
2019-03-22T11:12:00.120Z,15.07
2019-03-22T11:16:08.765Z,9.67
2019-03-22T11:20:17.370Z,7.77
2019-03-22T11:24:25.716Z,15.23
2019-03-22T11:28:34.950Z,7.37
2019-03-22T11:32:43.291Z,7.77
2019-03-22T11:36:51.937Z,7.83
2019-03-22T11:41:00.158Z,8.87
2019-03-22T11:45:11.099Z,7.67
2019-03-22T11:49:19.540Z,11.27
2019-03-22T11:53:27.755Z,6.80
2019-03-22T11:57:38.316Z,9.93
2019-03-22T12:01:46.950Z,12.13
2019-03-22T12:05:55.280Z,7.03
2019-03-22T12:10:04.374Z,6.97
2019-03-22T12:14:12.855Z,5.97
2019-03-22T12:18:21.168Z,5.30
2019-03-22T12:22:29.896Z,9.47
2019-03-22T12:26:38.427Z,5.70
2019-03-22T12:30:46.642Z,5.20
2019-03-22T12:34:55.173Z,9.87
2019-03-22T12:39:04.183Z,8.57
2019-03-22T12:43:12.949Z,7.47
2019-03-22T12:47:22.081Z,6.83
2019-03-22T12:51:30.401Z,5.93
2019-03-22T12:55:38.829Z,8.30
2019-03-22T12:59:47.354Z,5.83
2019-03-22T13:03:55.576Z,8.37
2019-03-22T13:08:04.601Z,8.87
2019-03-22T13:12:13.441Z,6.83
2019-03-22T13:16:21.779Z,5.63
2019-03-22T13:20:30.692Z,5.67
2019-03-22T13:24:38.920Z,9.27
2019-03-22T13:28:47.865Z,10.07
2019-03-22T13:32:56.791Z,8.47
2019-03-22T13:37:05.020Z,8.07
2019-03-22T13:41:13.552Z,10.93
2019-03-22T13:45:22.378Z,5.97
2019-03-22T13:49:30.699Z,11.10
2019-03-22T13:53:39.345Z,17.40
2019-03-22T13:57:47.549Z,7.63
2019-03-22T14:01:56.403Z,7.50
2019-03-22T14:06:05.733Z,7.17
2019-03-22T14:10:22.232Z,11.77
2019-03-22T14:14:31.083Z,13.00
2019-03-22T14:18:39.817Z,19.70
2019-03-22T14:22:48.237Z,15.93
2019-03-22T14:26:56.673Z,41.63
2019-03-22T14:31:05.997Z,15.03
2019-03-22T14:35:14.329Z,15.17
2019-03-22T14:39:22.771Z,22.53
2019-03-22T14:43:31.601Z,17.10
2019-03-22T14:47:39.712Z,18.13
2019-03-22T14:51:48.446Z,22.07
2019-03-22T14:55:57.071Z,19.87
2019-03-22T15:00:05.705Z,14.73
2019-03-22T15:04:14.634Z,15.70
2019-03-22T15:08:23.138Z,14.63
2019-03-22T15:12:31.700Z,16.23
2019-03-22T15:17:17.529Z,21.30
2019-03-22T15:21:44.772Z,18.60
2019-03-22T15:26:11.224Z,16.10
2019-03-22T15:30:56.604Z,18.47
2019-03-22T15:35:42.438Z,32.27
2019-03-22T15:40:03.916Z,16.27
2019-03-22T15:44:12.521Z,22.90
2019-03-22T15:48:21.393Z,18.43
2019-03-22T15:52:30.113Z,32.33
2019-03-22T15:56:38.421Z,24.10
2019-03-22T16:00:47.173Z,17.10
2019-03-22T16:04:55.401Z,22.40
2019-03-22T16:09:05.173Z,17.63
2019-03-22T16:13:13.680Z,23.27
2019-03-22T16:17:21.895Z,22.73
2019-03-22T16:21:30.835Z,19.17
2019-03-22T16:25:39.666Z,14.33
2019-03-22T16:29:47.879Z,25.77
2019-03-22T16:33:57.105Z,17.03
2019-03-22T16:38:05.639Z,15.93
2019-03-22T16:42:13.990Z,19.67
2019-03-22T16:46:22.920Z,79.37
2019-03-22T16:50:31.843Z,82.30
2019-03-22T16:54:40.703Z,36.50
2019-03-22T16:58:49.718Z,44.23
2019-03-22T17:02:57.950Z,44.63
2019-03-22T17:07:07.195Z,35.43
2019-03-22T17:11:15.421Z,36.77
2019-03-22T17:15:24.155Z,38.83
2019-03-22T17:19:32.726Z,36.17
2019-03-22T17:23:40.888Z,41.20
2019-03-22T17:27:49.735Z,46.40
2019-03-22T17:31:58.651Z,23.03
2019-03-22T17:36:07.068Z,18.27
2019-03-22T17:40:15.813Z,21.37
2019-03-22T17:44:24.365Z,28.10
2019-03-22T17:48:32.471Z,58.93
2019-03-22T17:52:41.076Z,48.73
2019-03-22T17:56:49.437Z,34.37
2019-03-22T18:00:58.415Z,29.30
2019-03-22T18:05:08.394Z,20.40
2019-03-22T18:09:16.625Z,27.43
2019-03-22T18:13:25.581Z,17.20
2019-03-22T18:17:34.096Z,24.47
2019-03-22T18:21:42.337Z,14.83
2019-03-22T18:25:51.067Z,18.23
2019-03-22T18:29:59.368Z,29.73
2019-03-22T18:34:08.538Z,18.67
2019-03-22T18:38:17.324Z,12.60
2019-03-22T18:42:25.576Z,23.00
2019-03-22T18:46:34.290Z,18.57
2019-03-22T18:50:43.132Z,21.07
2019-03-22T18:54:51.956Z,23.93
2019-03-22T18:59:00.397Z,17.70
2019-03-22T19:03:08.623Z,20.93
2019-03-22T19:07:17.232Z,45.00
2019-03-22T19:11:25.947Z,21.83
2019-03-22T19:15:34.303Z,21.00
2019-03-22T19:19:42.714Z,27.10
2019-03-22T19:23:50.934Z,33.07
2019-03-22T19:27:59.559Z,22.40
2019-03-22T19:32:13.423Z,18.40
2019-03-22T19:36:18.053Z,18.33
2019-03-22T19:40:26.636Z,21.00
2019-03-22T19:44:35.413Z,23.23
2019-03-22T19:48:43.732Z,21.07
2019-03-22T19:52:52.261Z,34.43
2019-03-22T19:57:01.165Z,28.30
2019-03-22T20:01:09.615Z,30.47
2019-03-22T20:05:32.135Z,34.73
2019-03-22T20:09:40.553Z,27.83
2019-03-22T20:13:48.787Z,30.90
2019-03-22T20:17:57.330Z,24.03
2019-03-22T20:22:06.084Z,24.10
2019-03-22T20:26:14.406Z,17.13
2019-03-22T20:30:23.541Z,22.83
2019-03-22T20:34:31.837Z,19.17
2019-03-22T20:38:41.103Z,17.77
2019-03-22T20:42:50.064Z,19.43
2019-03-22T20:46:58.264Z,16.60
2019-03-22T20:51:06.992Z,16.23
2019-03-22T20:55:17.209Z,18.07
2019-03-22T20:59:25.373Z,17.17
2019-03-22T21:03:34.093Z,19.77
2019-03-22T21:07:42.421Z,14.07
2019-03-22T21:11:51.194Z,16.53
2019-03-22T21:15:59.698Z,15.50
2019-03-22T21:20:08.650Z,17.27
2019-03-22T21:24:17.654Z,17.67
2019-03-22T21:28:26.574Z,14.40
2019-03-22T21:32:44.740Z,17.33
2019-03-22T21:36:45.175Z,26.47
2019-03-22T21:40:53.925Z,16.03
2019-03-22T21:45:02.125Z,18.77
2019-03-22T21:49:11.064Z,19.90
2019-03-22T21:53:19.411Z,23.30
2019-03-22T21:57:27.835Z,23.17
2019-03-22T22:01:37.848Z,19.67
2019-03-22T22:05:48.090Z,22.47
2019-03-22T22:09:56.768Z,21.47
2019-03-22T22:14:05.594Z,20.97
2019-03-22T22:18:14.132Z,22.80
2019-03-22T22:22:22.555Z,21.07
2019-03-22T22:26:31.503Z,22.87
2019-03-22T22:30:39.711Z,24.47
2019-03-22T22:34:48.043Z,25.80
2019-03-22T22:38:56.881Z,24.67
2019-03-22T22:43:05.125Z,28.27
2019-03-22T22:47:13.710Z,23.80
2019-03-22T22:51:22.283Z,25.43
2019-03-22T22:55:30.457Z,26.30
2019-03-22T22:59:39.748Z,28.60
2019-03-22T23:03:47.820Z,29.37
2019-03-22T23:07:56.049Z,25.90
2019-03-22T23:12:04.767Z,27.37
2019-03-22T23:16:13.304Z,23.13
2019-03-22T23:20:22.178Z,25.23
2019-03-22T23:24:30.560Z,24.87
2019-03-22T23:28:38.996Z,27.23
2019-03-22T23:32:47.924Z,21.30
2019-03-22T23:36:56.752Z,26.70
2019-03-22T23:41:05.331Z,22.50
2019-03-22T23:45:14.632Z,23.13
2019-03-22T23:49:23.349Z,24.17
2019-03-22T23:53:31.761Z,23.20
2019-03-22T23:57:40.016Z,23.77
